sensor_id;sensor_type;location;lat;lon;timestamp;pressure;altitude;pressure_sealevel;temperature;humidity
73936;BME280;62287;50.858;0.252;2022-10-22T00:00:17;100263.13;;;18.62;43.57
73936;BME280;62287;50.858;0.252;2022-10-22T00:00:48;100266.77;;;18.25;43.67
73936;BME280;62287;50.858;0.252;2022-10-22T00:01:19;100267.05;;;18.98;43.39
73936;BME280;62287;50.858;0.252;2022-10-22T00:01:50;100262.84;;;18.73;43.02
73936;BME280;62287;50.858;0.252;2022-10-22T00:02:21;100262.57;;;19.09;42.97
73936;BME280;62287;50.858;0.252;2022-10-22T00:02:52;100263.41;;;19.25;43.17
73936;BME280;62287;50.858;0.252;2022-10-22T00:03:23;100262.99;;;19.17;43.00
73936;BME280;62287;50.858;0.252;2022-10-22T00:03:54;100261.82;;;18.86;43.33
73936;BME280;62287;50.858;0.252;2022-10-22T00:04:25;100260.44;;;19.17;42.54
73936;BME280;62287;50.858;0.252;2022-10-22T00:04:56;100266.39;;;18.56;42.86
73936;BME280;62287;50.858;0.252;2022-10-22T00:05:27;100263.39;;;18.94;43.00
73936;BME280;62287;50.858;0.252;2022-10-22T00:05:58;100262.43;;;19.05;42.88
73936;BME280;62287;50.858;0.252;2022-10-22T00:06:29;100265.73;;;19.02;42.52
73936;BME280;62287;50.858;0.252;2022-10-22T00:07:00;100267.55;;;19.29;42.80
73936;BME280;62287;50.858;0.252;2022-10-22T00:07:31;100266.50;;;19.10;43.10
73936;BME280;62287;50.858;0.252;2022-10-22T00:08:02;100270.63;;;18.60;42.44
73936;BME280;62287;50.858;0.252;2022-10-22T00:08:33;100269.16;;;18.68;42.21
73936;BME280;62287;50.858;0.252;2022-10-22T00:09:05;100267.53;;;18.47;42.53
73936;BME280;62287;50.858;0.252;2022-10-22T00:09:35;100270.03;;;18.76;42.95
73936;BME280;62287;50.858;0.252;2022-10-22T00:10:07;100267.59;;;19.16;42.32
73936;BME280;62287;50.858;0.252;2022-10-22T00:10:39;100266.46;;;18.73;42.69
73936;BME280;62287;50.858;0.252;2022-10-22T00:11:12;100266.63;;;18.78;42.57
73936;BME280;62287;50.858;0.252;2022-10-22T00:11:45;100266.22;;;19.07;42.57
73936;BME280;62287;50.858;0.252;2022-10-22T00:12:16;100269.10;;;18.42;42.72
73936;BME280;62287;50.858;0.252;2022-10-22T00:12:48;100273.65;;;18.77;43.09
73936;BME280;62287;50.858;0.252;2022-10-22T00:13:19;100269.66;;;18.22;43.09
73936;BME280;62287;50.858;0.252;2022-10-22T00:13:50;100270.32;;;19.02;42.74
73936;BME280;62287;50.858;0.252;2022-10-22T00:14:22;100269.34;;;18.82;42.70
73936;BME280;62287;50.858;0.252;2022-10-22T00:14:53;100267.53;;;18.54;42.90
73936;BME280;62287;50.858;0.252;2022-10-22T00:15:25;100266.77;;;18.61;42.39
73936;BME280;62287;50.858;0.252;2022-10-22T00:15:55;100268.88;;;18.60;42.81
73936;BME280;62287;50.858;0.252;2022-10-22T00:16:26;100268.07;;;18.97;43.04
73936;BME280;62287;50.858;0.252;2022-10-22T00:16:57;100264.68;;;18.93;43.16
73936;BME280;62287;50.858;0.252;2022-10-22T00:17:29;100273.79;;;19.10;42.78
73936;BME280;62287;50.858;0.252;2022-10-22T00:18:00;100271.70;;;18.55;43.08
73936;BME280;62287;50.858;0.252;2022-10-22T00:18:31;100277.48;;;18.53;43.06
73936;BME280;62287;50.858;0.252;2022-10-22T00:19:02;100272.25;;;18.29;43.02
73936;BME280;62287;50.858;0.252;2022-10-22T00:19:33;100274.38;;;19.01;42.91
73936;BME280;62287;50.858;0.252;2022-10-22T00:20:05;100280.10;;;18.76;42.78
73936;BME280;62287;50.858;0.252;2022-10-22T00:20:37;100278.92;;;18.65;42.94
73936;BME280;62287;50.858;0.252;2022-10-22T00:21:08;100276.93;;;18.35;43.26
73936;BME280;62287;50.858;0.252;2022-10-22T00:21:39;100284.96;;;18.49;43.16
73936;BME280;62287;50.858;0.252;2022-10-22T00:22:11;100279.15;;;18.80;42.88
73936;BME280;62287;50.858;0.252;2022-10-22T00:22:42;100281.60;;;18.96;42.89
73936;BME280;62287;50.858;0.252;2022-10-22T00:23:13;100282.01;;;18.58;43.03
73936;BME280;62287;50.858;0.252;2022-10-22T00:23:44;100284.54;;;18.41;42.90
73936;BME280;62287;50.858;0.252;2022-10-22T00:24:15;100286.18;;;18.41;42.77
73936;BME280;62287;50.858;0.252;2022-10-22T00:24:47;100289.36;;;18.49;42.94
73936;BME280;62287;50.858;0.252;2022-10-22T00:25:18;100283.98;;;18.62;43.04
73936;BME280;62287;50.858;0.252;2022-10-22T00:25:49;100288.77;;;19.21;42.13
73936;BME280;62287;50.858;0.252;2022-10-22T00:26:20;100289.90;;;18.84;42.30
73936;BME280;62287;50.858;0.252;2022-10-22T00:26:51;100289.73;;;18.58;42.87
73936;BME280;62287;50.858;0.252;2022-10-22T00:27:22;100291.77;;;18.14;43.17
73936;BME280;62287;50.858;0.252;2022-10-22T00:27:53;100288.75;;;18.67;42.80
73936;BME280;62287;50.858;0.252;2022-10-22T00:28:25;100286.77;;;18.70;42.68
73936;BME280;62287;50.858;0.252;2022-10-22T00:28:57;100290.97;;;18.63;43.17
73936;BME280;62287;50.858;0.252;2022-10-22T00:29:28;100296.56;;;18.40;43.47
73936;BME280;62287;50.858;0.252;2022-10-22T00:30:00;100290.50;;;18.86;43.13
73936;BME280;62287;50.858;0.252;2022-10-22T00:30:31;100291.38;;;18.27;42.61
73936;BME280;62287;50.858;0.252;2022-10-22T00:31:02;100292.95;;;18.85;43.36
73936;BME280;62287;50.858;0.252;2022-10-22T00:31:34;100288.77;;;19.01;42.89
73936;BME280;62287;50.858;0.252;2022-10-22T00:32:05;100287.35;;;18.55;43.02
73936;BME280;62287;50.858;0.252;2022-10-22T00:32:36;100292.26;;;18.87;43.23
73936;BME280;62287;50.858;0.252;2022-10-22T00:33:07;100290.32;;;19.20;42.71
73936;BME280;62287;50.858;0.252;2022-10-22T00:33:38;100293.68;;;18.15;43.08
73936;BME280;62287;50.858;0.252;2022-10-22T00:34:09;100291.86;;;18.36;43.30
73936;BME280;62287;50.858;0.252;2022-10-22T00:34:40;100296.99;;;18.58;43.18
73936;BME280;62287;50.858;0.252;2022-10-22T00:35:11;100295.16;;;18.77;43.23
73936;BME280;62287;50.858;0.252;2022-10-22T00:35:43;100294.56;;;18.45;43.47
73936;BME280;62287;50.858;0.252;2022-10-22T00:36:15;100300.35;;;18.47;43.38
73936;BME280;62287;50.858;0.252;2022-10-22T00:36:47;100296.87;;;18.62;43.00
73936;BME280;62287;50.858;0.252;2022-10-22T00:37:18;100303.12;;;18.86;43.27
73936;BME280;62287;50.858;0.252;2022-10-22T00:37:49;100300.01;;;18.04;43.08
73936;BME280;62287;50.858;0.252;2022-10-22T00:38:20;100301.56;;;18.54;42.72
73936;BME280;62287;50.858;0.252;2022-10-22T00:38:51;100302.27;;;18.90;43.09
73936;BME280;62287;50.858;0.252;2022-10-22T00:39:24;100305.85;;;18.66;43.29
73936;BME280;62287;50.858;0.252;2022-10-22T00:39:55;100300.93;;;18.58;43.10
73936;BME280;62287;50.858;0.252;2022-10-22T00:40:26;100303.98;;;18.68;43.32
73936;BME280;62287;50.858;0.252;2022-10-22T00:40:57;100298.59;;;18.64;42.97
73936;BME280;62287;50.858;0.252;2022-10-22T00:41:28;100302.80;;;18.77;43.44
73936;BME280;62287;50.858;0.252;2022-10-22T00:42:00;100298.54;;;18.64;42.50
73936;BME280;62287;50.858;0.252;2022-10-22T00:42:31;100302.04;;;18.87;42.95
73936;BME280;62287;50.858;0.252;2022-10-22T00:43:02;100304.21;;;18.06;43.66
73936;BME280;62287;50.858;0.252;2022-10-22T00:43:51;100311.60;;;18.27;43.82
73936;BME280;62287;50.858;0.252;2022-10-22T00:45:28;100303.51;;;18.00;43.34
73936;BME280;62287;50.858;0.252;2022-10-22T00:46:04;100302.75;;;18.52;43.47
73936;BME280;62287;50.858;0.252;2022-10-22T00:46:36;100299.72;;;18.18;43.19
73936;BME280;62287;50.858;0.252;2022-10-22T00:47:07;100304.52;;;18.42;43.57
73936;BME280;62287;50.858;0.252;2022-10-22T00:47:47;100301.04;;;18.63;43.19
73936;BME280;62287;50.858;0.252;2022-10-22T00:48:23;100307.08;;;18.56;43.37
73936;BME280;62287;50.858;0.252;2022-10-22T00:48:57;100310.26;;;18.65;42.99
73936;BME280;62287;50.858;0.252;2022-10-22T00:49:29;100311.83;;;18.87;43.13
73936;BME280;62287;50.858;0.252;2022-10-22T00:50:01;100311.94;;;18.31;43.29
73936;BME280;62287;50.858;0.252;2022-10-22T00:50:37;100312.48;;;18.52;43.39
73936;BME280;62287;50.858;0.252;2022-10-22T00:51:09;100312.51;;;18.51;43.21
73936;BME280;62287;50.858;0.252;2022-10-22T00:51:43;100316.28;;;18.74;43.55
73936;BME280;62287;50.858;0.252;2022-10-22T00:52:15;100309.05;;;18.40;43.47
73936;BME280;62287;50.858;0.252;2022-10-22T00:52:46;100314.55;;;18.42;43.28
73936;BME280;62287;50.858;0.252;2022-10-22T00:53:20;100316.66;;;18.46;43.63
73936;BME280;62287;50.858;0.252;2022-10-22T00:53:55;100315.23;;;18.33;43.25
73936;BME280;62287;50.858;0.252;2022-10-22T00:54:27;100315.23;;;18.98;43.36
73936;BME280;62287;50.858;0.252;2022-10-22T00:55:00;100317.88;;;18.29;43.71
73936;BME280;62287;50.858;0.252;2022-10-22T00:55:32;100317.98;;;18.91;43.33
73936;BME280;62287;50.858;0.252;2022-10-22T00:56:04;100320.66;;;18.56;42.96
73936;BME280;62287;50.858;0.252;2022-10-22T00:56:36;100319.61;;;18.65;42.93
73936;BME280;62287;50.858;0.252;2022-10-22T00:57:08;100320.17;;;18.44;43.62
73936;BME280;62287;50.858;0.252;2022-10-22T00:57:39;100321.03;;;18.76;43.34
73936;BME280;62287;50.858;0.252;2022-10-22T00:58:11;100322.35;;;18.82;43.50
73936;BME280;62287;50.858;0.252;2022-10-22T00:58:45;100324.49;;;18.51;43.19
73936;BME280;62287;50.858;0.252;2022-10-22T00:59:17;100324.29;;;18.61;42.78
73936;BME280;62287;50.858;0.252;2022-10-22T00:59:49;100323.49;;;18.83;43.62
73936;BME280;62287;50.858;0.252;2022-10-22T01:00:21;100327.48;;;18.02;43.81
73936;BME280;62287;50.858;0.252;2022-10-22T01:00:52;100326.81;;;18.89;43.50
73936;BME280;62287;50.858;0.252;2022-10-22T01:01:26;100326.60;;;18.78;43.70
73936;BME280;62287;50.858;0.252;2022-10-22T01:01:58;100327.91;;;18.88;43.39
73936;BME280;62287;50.858;0.252;2022-10-22T01:02:34;100329.60;;;18.15;43.82
73936;BME280;62287;50.858;0.252;2022-10-22T01:03:06;100331.22;;;18.85;43.50
73936;BME280;62287;50.858;0.252;2022-10-22T01:03:37;100329.90;;;18.59;42.77
73936;BME280;62287;50.858;0.252;2022-10-22T01:04:08;100331.07;;;18.40;43.42
73936;BME280;62287;50.858;0.252;2022-10-22T01:04:39;100335.07;;;18.21;43.11
73936;BME280;62287;50.858;0.252;2022-10-22T01:05:16;100334.07;;;18.35;43.43
73936;BME280;62287;50.858;0.252;2022-10-22T01:06:00;100337.23;;;18.70;43.42
73936;BME280;62287;50.858;0.252;2022-10-22T01:06:32;100331.46;;;18.39;43.12
73936;BME280;62287;50.858;0.252;2022-10-22T01:07:03;100333.09;;;17.99;43.19
73936;BME280;62287;50.858;0.252;2022-10-22T01:07:39;100332.84;;;18.33;43.53
73936;BME280;62287;50.858;0.252;2022-10-22T01:08:17;100335.84;;;18.70;43.36
73936;BME280;62287;50.858;0.252;2022-10-22T01:08:59;100338.00;;;18.66;43.36
73936;BME280;62287;50.858;0.252;2022-10-22T01:09:39;100334.68;;;18.71;43.13
73936;BME280;62287;50.858;0.252;2022-10-22T01:10:19;100338.44;;;17.93;43.53
73936;BME280;62287;50.858;0.252;2022-10-22T01:11:03;100336.43;;;18.69;42.93
73936;BME280;62287;50.858;0.252;2022-10-22T01:11:46;100337.01;;;18.94;42.69
73936;BME280;62287;50.858;0.252;2022-10-22T01:12:25;100340.30;;;18.42;43.39
73936;BME280;62287;50.858;0.252;2022-10-22T01:13:07;100341.63;;;18.83;43.24
73936;BME280;62287;50.858;0.252;2022-10-22T01:13:51;100339.35;;;18.67;43.27
73936;BME280;62287;50.858;0.252;2022-10-22T01:14:32;100342.95;;;18.82;43.16
73936;BME280;62287;50.858;0.252;2022-10-22T01:15:13;100343.33;;;18.73;42.61
73936;BME280;62287;50.858;0.252;2022-10-22T01:15:52;100344.09;;;18.48;42.65
73936;BME280;62287;50.858;0.252;2022-10-22T01:16:31;100348.98;;;18.58;43.21
73936;BME280;62287;50.858;0.252;2022-10-22T01:17:07;100348.26;;;18.64;43.16
73936;BME280;62287;50.858;0.252;2022-10-22T01:17:46;100351.41;;;17.72;43.31
73936;BME280;62287;50.858;0.252;2022-10-22T01:18:23;100349.04;;;18.19;43.41
73936;BME280;62287;50.858;0.252;2022-10-22T01:19:05;100350.63;;;18.52;43.51
73936;BME280;62287;50.858;0.252;2022-10-22T01:19:53;100351.33;;;18.80;42.95
73936;BME280;62287;50.858;0.252;2022-10-22T01:20:52;100351.70;;;18.66;43.01
73936;BME280;62287;50.858;0.252;2022-10-22T01:21:31;100357.20;;;18.42;42.61
73936;BME280;62287;50.858;0.252;2022-10-22T01:22:08;100355.27;;;18.61;42.97
73936;BME280;62287;50.858;0.252;2022-10-22T01:22:46;100357.29;;;18.59;43.31
73936;BME280;62287;50.858;0.252;2022-10-22T01:23:38;100360.23;;;18.71;43.21
73936;BME280;62287;50.858;0.252;2022-10-22T01:24:26;100358.90;;;18.48;42.87
73936;BME280;62287;50.858;0.252;2022-10-22T01:25:07;100358.83;;;18.52;43.19
73936;BME280;62287;50.858;0.252;2022-10-22T01:25:49;100364.02;;;18.72;43.03
73936;BME280;62287;50.858;0.252;2022-10-22T01:26:36;100363.51;;;18.69;43.26
73936;BME280;62287;50.858;0.252;2022-10-22T01:27:20;100365.01;;;18.54;42.36
73936;BME280;62287;50.858;0.252;2022-10-22T01:28:04;100367.30;;;18.47;42.83
73936;BME280;62287;50.858;0.252;2022-10-22T01:28:53;100362.62;;;18.85;43.00
73936;BME280;62287;50.858;0.252;2022-10-22T01:29:29;100368.35;;;17.73;43.43
73936;BME280;62287;50.858;0.252;2022-10-22T01:30:05;100365.78;;;18.67;42.94
73936;BME280;62287;50.858;0.252;2022-10-22T01:30:38;100367.53;;;18.40;42.70
73936;BME280;62287;50.858;0.252;2022-10-22T01:31:11;100372.76;;;18.44;43.06
73936;BME280;62287;50.858;0.252;2022-10-22T01:31:46;100366.89;;;18.40;42.84
73936;BME280;62287;50.858;0.252;2022-10-22T01:32:21;100371.40;;;18.85;42.31
73936;BME280;62287;50.858;0.252;2022-10-22T01:32:56;100375.53;;;18.03;42.77
73936;BME280;62287;50.858;0.252;2022-10-22T01:33:30;100373.10;;;18.87;42.19
73936;BME280;62287;50.858;0.252;2022-10-22T01:34:03;100375.47;;;18.83;42.84
73936;BME280;62287;50.858;0.252;2022-10-22T01:34:37;100376.09;;;18.78;42.89
73936;BME280;62287;50.858;0.252;2022-10-22T01:35:14;100375.72;;;18.52;42.75
73936;BME280;62287;50.858;0.252;2022-10-22T01:35:48;100378.48;;;18.80;42.29
73936;BME280;62287;50.858;0.252;2022-10-22T01:36:20;100375.05;;;18.79;42.43
73936;BME280;62287;50.858;0.252;2022-10-22T01:36:52;100376.07;;;18.68;42.63
73936;BME280;62287;50.858;0.252;2022-10-22T01:37:28;100383.81;;;18.23;42.27
73936;BME280;62287;50.858;0.252;2022-10-22T01:38:02;100381.33;;;18.51;42.54
73936;BME280;62287;50.858;0.252;2022-10-22T01:38:35;100379.64;;;18.57;42.84
73936;BME280;62287;50.858;0.252;2022-10-22T01:39:08;100378.33;;;18.41;41.88
73936;BME280;62287;50.858;0.252;2022-10-22T01:39:40;100381.01;;;18.61;42.73
73936;BME280;62287;50.858;0.252;2022-10-22T01:40:14;100383.25;;;18.63;42.97
73936;BME280;62287;50.858;0.252;2022-10-22T01:40:46;100379.42;;;18.45;43.13
73936;BME280;62287;50.858;0.252;2022-10-22T01:41:18;100381.79;;;18.23;42.96
73936;BME280;62287;50.858;0.252;2022-10-22T01:41:49;100384.37;;;18.17;43.24
73936;BME280;62287;50.858;0.252;2022-10-22T01:42:22;100382.56;;;18.55;43.26
73936;BME280;62287;50.858;0.252;2022-10-22T01:42:56;100385.33;;;18.09;43.15
73936;BME280;62287;50.858;0.252;2022-10-22T01:43:28;100382.25;;;18.70;42.34
73936;BME280;62287;50.858;0.252;2022-10-22T01:43:59;100384.79;;;18.58;42.34
73936;BME280;62287;50.858;0.252;2022-10-22T01:44:35;100385.52;;;18.60;42.56
73936;BME280;62287;50.858;0.252;2022-10-22T01:45:11;100381.32;;;18.38;42.27
73936;BME280;62287;50.858;0.252;2022-10-22T01:45:45;100383.18;;;17.98;42.92
73936;BME280;62287;50.858;0.252;2022-10-22T01:46:18;100382.75;;;18.07;42.57
73936;BME280;62287;50.858;0.252;2022-10-22T01:46:56;100387.38;;;18.37;42.77
73936;BME280;62287;50.858;0.252;2022-10-22T01:47:40;100384.44;;;18.07;42.87
73936;BME280;62287;50.858;0.252;2022-10-22T01:48:24;100387.55;;;18.41;43.41
73936;BME280;62287;50.858;0.252;2022-10-22T01:49:11;100386.85;;;18.55;42.81
73936;BME280;62287;50.858;0.252;2022-10-22T01:52:28;100386.82;;;18.60;43.19
73936;BME280;62287;50.858;0.252;2022-10-22T01:53:17;100394.08;;;18.29;42.84
73936;BME280;62287;50.858;0.252;2022-10-22T01:53:53;100393.28;;;18.73;42.61
73936;BME280;62287;50.858;0.252;2022-10-22T01:54:37;100394.40;;;18.48;43.42
73936;BME280;62287;50.858;0.252;2022-10-22T01:55:17;100391.83;;;18.55;43.39
73936;BME280;62287;50.858;0.252;2022-10-22T01:56:02;100391.53;;;18.49;43.16
73936;BME280;62287;50.858;0.252;2022-10-22T01:56:50;100395.81;;;18.37;42.83
73936;BME280;62287;50.858;0.252;2022-10-22T01:57:32;100391.66;;;18.67;43.13
73936;BME280;62287;50.858;0.252;2022-10-22T01:58:18;100391.45;;;18.33;42.71
73936;BME280;62287;50.858;0.252;2022-10-22T01:58:59;100398.09;;;18.63;43.06
73936;BME280;62287;50.858;0.252;2022-10-22T01:59:42;100394.06;;;18.41;42.59
73936;BME280;62287;50.858;0.252;2022-10-22T02:00:16;100396.00;;;18.77;42.86
73936;BME280;62287;50.858;0.252;2022-10-22T02:00:55;100395.83;;;18.74;43.13
73936;BME280;62287;50.858;0.252;2022-10-22T02:01:32;100397.19;;;18.84;42.63
73936;BME280;62287;50.858;0.252;2022-10-22T02:02:14;100399.19;;;18.56;42.95
73936;BME280;62287;50.858;0.252;2022-10-22T02:02:55;100402.69;;;18.72;42.70
73936;BME280;62287;50.858;0.252;2022-10-22T02:03:33;100400.71;;;18.60;42.54
73936;BME280;62287;50.858;0.252;2022-10-22T02:04:12;100403.58;;;18.71;42.30
73936;BME280;62287;50.858;0.252;2022-10-22T02:04:49;100400.07;;;18.54;42.47
73936;BME280;62287;50.858;0.252;2022-10-22T02:05:29;100404.51;;;18.26;42.41
73936;BME280;62287;50.858;0.252;2022-10-22T02:06:06;100410.31;;;18.53;42.30
73936;BME280;62287;50.858;0.252;2022-10-22T02:06:42;100406.26;;;18.47;42.57
73936;BME280;62287;50.858;0.252;2022-10-22T02:07:18;100405.97;;;18.38;43.40
73936;BME280;62287;50.858;0.252;2022-10-22T02:07:56;100408.55;;;18.46;43.06
73936;BME280;62287;50.858;0.252;2022-10-22T02:08:32;100406.52;;;18.64;42.35
73936;BME280;62287;50.858;0.252;2022-10-22T02:09:06;100411.93;;;18.33;42.84
73936;BME280;62287;50.858;0.252;2022-10-22T02:09:40;100414.59;;;18.31;42.46
73936;BME280;62287;50.858;0.252;2022-10-22T02:10:12;100408.04;;;18.22;43.31
73936;BME280;62287;50.858;0.252;2022-10-22T02:10:45;100409.21;;;18.23;43.14
73936;BME280;62287;50.858;0.252;2022-10-22T02:11:17;100413.04;;;18.15;43.53
73936;BME280;62287;50.858;0.252;2022-10-22T02:11:52;100412.82;;;18.35;43.24
73936;BME280;62287;50.858;0.252;2022-10-22T02:12:25;100413.34;;;18.33;42.41
73936;BME280;62287;50.858;0.252;2022-10-22T02:13:00;100415.61;;;18.13;43.01
73936;BME280;62287;50.858;0.252;2022-10-22T02:13:36;100414.26;;;18.26;42.27
73936;BME280;62287;50.858;0.252;2022-10-22T02:14:11;100417.20;;;18.47;42.18
73936;BME280;62287;50.858;0.252;2022-10-22T02:14:50;100429.81;;;18.47;42.52
73936;BME280;62287;50.858;0.252;2022-10-22T02:15:23;100420.25;;;18.10;42.68
73936;BME280;62287;50.858;0.252;2022-10-22T02:15:56;100422.31;;;18.29;42.98
73936;BME280;62287;50.858;0.252;2022-10-22T02:16:32;100417.94;;;18.40;42.48
73936;BME280;62287;50.858;0.252;2022-10-22T02:17:07;100423.85;;;18.37;42.90
73936;BME280;62287;50.858;0.252;2022-10-22T02:17:41;100420.64;;;18.48;42.34
73936;BME280;62287;50.858;0.252;2022-10-22T02:18:15;100421.89;;;18.38;42.23
73936;BME280;62287;50.858;0.252;2022-10-22T02:18:53;100420.33;;;18.25;42.45
73936;BME280;62287;50.858;0.252;2022-10-22T02:19:26;100420.29;;;18.11;42.21
73936;BME280;62287;50.858;0.252;2022-10-22T02:20:00;100425.97;;;18.54;42.94
73936;BME280;62287;50.858;0.252;2022-10-22T02:20:35;100425.18;;;18.30;42.22
73936;BME280;62287;50.858;0.252;2022-10-22T02:21:08;100427.43;;;17.84;42.20
73936;BME280;62287;50.858;0.252;2022-10-22T02:21:39;100428.44;;;17.50;42.38
73936;BME280;62287;50.858;0.252;2022-10-22T02:22:10;100427.14;;;17.98;42.64
73936;BME280;62287;50.858;0.252;2022-10-22T02:22:41;100423.65;;;17.73;42.47
73936;BME280;62287;50.858;0.252;2022-10-22T02:23:13;100428.84;;;17.79;42.61
73936;BME280;62287;50.858;0.252;2022-10-22T02:23:44;100427.39;;;17.81;43.19
73936;BME280;62287;50.858;0.252;2022-10-22T02:24:15;100428.24;;;17.90;42.59
73936;BME280;62287;50.858;0.252;2022-10-22T02:24:48;100422.80;;;17.65;42.56
73936;BME280;62287;50.858;0.252;2022-10-22T02:25:21;100428.97;;;17.58;42.52
73936;BME280;62287;50.858;0.252;2022-10-22T02:25:59;100426.14;;;17.99;43.26
73936;BME280;62287;50.858;0.252;2022-10-22T02:26:37;100426.06;;;17.70;43.41
73936;BME280;62287;50.858;0.252;2022-10-22T02:27:14;100426.50;;;17.79;43.65
73936;BME280;62287;50.858;0.252;2022-10-22T02:27:51;100427.00;;;17.94;42.63
73936;BME280;62287;50.858;0.252;2022-10-22T02:28:31;100426.96;;;17.42;43.24
73936;BME280;62287;50.858;0.252;2022-10-22T02:29:11;100424.42;;;17.60;42.91
73936;BME280;62287;50.858;0.252;2022-10-22T02:29:48;100425.82;;;18.05;42.68
73936;BME280;62287;50.858;0.252;2022-10-22T02:30:23;100428.92;;;18.09;43.43
73936;BME280;62287;50.858;0.252;2022-10-22T02:30:58;100425.36;;;18.26;43.11
73936;BME280;62287;50.858;0.252;2022-10-22T02:31:34;100426.09;;;18.11;42.54
73936;BME280;62287;50.858;0.252;2022-10-22T02:32:09;100429.00;;;18.06;42.33
73936;BME280;62287;50.858;0.252;2022-10-22T02:32:48;100427.04;;;17.89;42.03
73936;BME280;62287;50.858;0.252;2022-10-22T02:33:23;100432.54;;;17.77;42.51
73936;BME280;62287;50.858;0.252;2022-10-22T02:33:58;100433.21;;;17.69;43.52
73936;BME280;62287;50.858;0.252;2022-10-22T02:34:32;100427.54;;;17.73;42.86
73936;BME280;62287;50.858;0.252;2022-10-22T02:35:05;100437.07;;;17.76;42.33
73936;BME280;62287;50.858;0.252;2022-10-22T02:35:39;100435.54;;;17.82;43.15
73936;BME280;62287;50.858;0.252;2022-10-22T02:36:13;100439.59;;;17.93;43.27
73936;BME280;62287;50.858;0.252;2022-10-22T02:36:46;100438.89;;;18.37;42.25
73936;BME280;62287;50.858;0.252;2022-10-22T02:37:19;100441.79;;;17.70;42.44
73936;BME280;62287;50.858;0.252;2022-10-22T02:37:52;100441.45;;;17.56;42.88
73936;BME280;62287;50.858;0.252;2022-10-22T02:38:26;100441.48;;;17.65;43.59
73936;BME280;62287;50.858;0.252;2022-10-22T02:38:58;100440.27;;;17.82;42.34
73936;BME280;62287;50.858;0.252;2022-10-22T02:39:31;100447.02;;;17.36;43.09
73936;BME280;62287;50.858;0.252;2022-10-22T02:40:06;100441.28;;;17.99;42.68
73936;BME280;62287;50.858;0.252;2022-10-22T02:40:37;100445.11;;;17.85;42.65
73936;BME280;62287;50.858;0.252;2022-10-22T02:41:09;100446.45;;;17.84;43.10
73936;BME280;62287;50.858;0.252;2022-10-22T02:41:40;100447.99;;;17.93;42.44
73936;BME280;62287;50.858;0.252;2022-10-22T02:42:12;100449.61;;;17.86;42.35
73936;BME280;62287;50.858;0.252;2022-10-22T02:42:47;100450.84;;;17.82;42.97
73936;BME280;62287;50.858;0.252;2022-10-22T02:43:20;100456.08;;;17.78;42.47
73936;BME280;62287;50.858;0.252;2022-10-22T02:43:55;100455.94;;;17.68;43.37
73936;BME280;62287;50.858;0.252;2022-10-22T02:44:26;100453.35;;;17.86;42.56
73936;BME280;62287;50.858;0.252;2022-10-22T02:44:57;100452.01;;;17.78;43.21
73936;BME280;62287;50.858;0.252;2022-10-22T02:45:28;100455.80;;;17.74;43.56
73936;BME280;62287;50.858;0.252;2022-10-22T02:45:59;100456.11;;;17.99;42.94
73936;BME280;62287;50.858;0.252;2022-10-22T02:46:30;100454.04;;;17.86;43.25
73936;BME280;62287;50.858;0.252;2022-10-22T02:47:01;100456.04;;;18.29;43.49
73936;BME280;62287;50.858;0.252;2022-10-22T02:47:34;100460.66;;;18.22;43.65
73936;BME280;62287;50.858;0.252;2022-10-22T02:48:05;100455.69;;;17.97;42.29
73936;BME280;62287;50.858;0.252;2022-10-22T02:48:43;100459.93;;;17.85;43.03
73936;BME280;62287;50.858;0.252;2022-10-22T02:49:15;100456.53;;;17.94;43.13
73936;BME280;62287;50.858;0.252;2022-10-22T02:49:46;100461.20;;;18.02;43.28
73936;BME280;62287;50.858;0.252;2022-10-22T02:50:17;100461.39;;;17.95;43.38
73936;BME280;62287;50.858;0.252;2022-10-22T02:50:48;100462.38;;;17.72;43.75
73936;BME280;62287;50.858;0.252;2022-10-22T02:51:19;100457.93;;;17.85;42.71
73936;BME280;62287;50.858;0.252;2022-10-22T02:51:51;100461.74;;;17.98;42.83
73936;BME280;62287;50.858;0.252;2022-10-22T02:52:22;100460.80;;;17.91;42.97
73936;BME280;62287;50.858;0.252;2022-10-22T02:52:53;100463.34;;;18.01;42.35
73936;BME280;62287;50.858;0.252;2022-10-22T02:53:24;100463.81;;;17.85;42.70
73936;BME280;62287;50.858;0.252;2022-10-22T02:53:55;100464.99;;;17.92;42.89
73936;BME280;62287;50.858;0.252;2022-10-22T02:54:25;100465.69;;;17.92;43.04
73936;BME280;62287;50.858;0.252;2022-10-22T02:54:56;100467.19;;;18.04;42.50
73936;BME280;62287;50.858;0.252;2022-10-22T02:55:27;100462.61;;;17.99;42.56
73936;BME280;62287;50.858;0.252;2022-10-22T02:55:59;100457.71;;;18.11;42.06
73936;BME280;62287;50.858;0.252;2022-10-22T02:56:30;100468.16;;;17.94;42.00
73936;BME280;62287;50.858;0.252;2022-10-22T02:57:01;100474.00;;;17.70;42.38
73936;BME280;62287;50.858;0.252;2022-10-22T02:57:33;100468.08;;;17.79;43.33
73936;BME280;62287;50.858;0.252;2022-10-22T02:58:05;100464.51;;;17.87;42.16
73936;BME280;62287;50.858;0.252;2022-10-22T02:58:36;100466.09;;;17.91;42.84
73936;BME280;62287;50.858;0.252;2022-10-22T02:59:07;100467.15;;;17.80;41.95
73936;BME280;62287;50.858;0.252;2022-10-22T02:59:40;100462.39;;;17.55;41.85
73936;BME280;62287;50.858;0.252;2022-10-22T03:00:12;100464.52;;;17.23;42.70
73936;BME280;62287;50.858;0.252;2022-10-22T03:00:43;100465.99;;;17.48;42.50
73936;BME280;62287;50.858;0.252;2022-10-22T03:01:14;100462.33;;;17.40;42.81
73936;BME280;62287;50.858;0.252;2022-10-22T03:01:45;100464.70;;;17.28;42.68
73936;BME280;62287;50.858;0.252;2022-10-22T03:02:16;100463.39;;;17.37;42.52
73936;BME280;62287;50.858;0.252;2022-10-22T03:02:47;100463.59;;;17.92;43.04
73936;BME280;62287;50.858;0.252;2022-10-22T03:03:18;100462.93;;;17.65;43.04